sensor_id;sensor_type;location;lat;lon;timestamp;P1;durP1;ratioP1;P2;durP2;ratioP2
76856;SDS011;69705;44.686;37.628;2023-05-07T00:00:36;14.13;;;3.38;;
76856;SDS011;69705;44.686;37.628;2023-05-07T00:03:03;19.13;;;3.90;;
76856;SDS011;69705;44.686;37.628;2023-05-07T00:05:30;14.87;;;3.40;;
76856;SDS011;69705;44.686;37.628;2023-05-07T00:07:56;15.05;;;3.50;;
76856;SDS011;69705;44.686;37.628;2023-05-07T00:10:23;14.98;;;3.60;;
76856;SDS011;69705;44.686;37.628;2023-05-07T00:12:51;14.48;;;4.20;;
76856;SDS011;69705;44.686;37.628;2023-05-07T00:15:18;13.70;;;3.58;;
76856;SDS011;69705;44.686;37.628;2023-05-07T00:17:45;12.87;;;3.10;;
76856;SDS011;69705;44.686;37.628;2023-05-07T00:20:11;16.10;;;3.35;;
76856;SDS011;69705;44.686;37.628;2023-05-07T00:22:38;12.45;;;3.00;;
76856;SDS011;69705;44.686;37.628;2023-05-07T00:25:05;16.38;;;3.42;;
76856;SDS011;69705;44.686;37.628;2023-05-07T00:27:32;15.95;;;3.60;;
76856;SDS011;69705;44.686;37.628;2023-05-07T00:29:59;17.17;;;3.17;;
76856;SDS011;69705;44.686;37.628;2023-05-07T00:32:26;14.35;;;3.10;;
76856;SDS011;69705;44.686;37.628;2023-05-07T00:34:52;16.48;;;3.50;;
76856;SDS011;69705;44.686;37.628;2023-05-07T00:37:19;11.50;;;3.10;;
76856;SDS011;69705;44.686;37.628;2023-05-07T00:39:46;16.20;;;3.03;;
76856;SDS011;69705;44.686;37.628;2023-05-07T00:42:13;14.43;;;3.40;;
76856;SDS011;69705;44.686;37.628;2023-05-07T00:44:42;12.65;;;3.10;;
76856;SDS011;69705;44.686;37.628;2023-05-07T00:47:09;9.05;;;2.83;;
76856;SDS011;69705;44.686;37.628;2023-05-07T00:49:41;11.90;;;3.22;;
76856;SDS011;69705;44.686;37.628;2023-05-07T00:52:10;14.32;;;2.97;;
76856;SDS011;69705;44.686;37.628;2023-05-07T00:54:40;10.13;;;3.03;;
76856;SDS011;69705;44.686;37.628;2023-05-07T00:57:07;12.32;;;2.70;;
76856;SDS011;69705;44.686;37.628;2023-05-07T00:59:37;16.20;;;3.42;;
76856;SDS011;69705;44.686;37.628;2023-05-07T01:02:05;14.48;;;3.10;;
76856;SDS011;69705;44.686;37.628;2023-05-07T01:04:33;11.23;;;3.30;;
76856;SDS011;69705;44.686;37.628;2023-05-07T01:06:59;13.10;;;3.30;;
76856;SDS011;69705;44.686;37.628;2023-05-07T01:09:28;8.50;;;3.03;;
76856;SDS011;69705;44.686;37.628;2023-05-07T01:11:55;12.32;;;3.45;;
76856;SDS011;69705;44.686;37.628;2023-05-07T01:14:23;13.10;;;3.20;;
76856;SDS011;69705;44.686;37.628;2023-05-07T01:16:51;11.93;;;3.38;;
76856;SDS011;69705;44.686;37.628;2023-05-07T01:19:21;12.70;;;2.93;;
76856;SDS011;69705;44.686;37.628;2023-05-07T01:21:49;14.32;;;3.20;;
76856;SDS011;69705;44.686;37.628;2023-05-07T01:24:18;12.00;;;3.20;;
76856;SDS011;69705;44.686;37.628;2023-05-07T01:26:45;11.45;;;3.15;;
76856;SDS011;69705;44.686;37.628;2023-05-07T01:29:15;14.02;;;3.25;;
76856;SDS011;69705;44.686;37.628;2023-05-07T01:31:42;14.07;;;3.47;;
76856;SDS011;69705;44.686;37.628;2023-05-07T01:34:10;13.82;;;3.50;;
76856;SDS011;69705;44.686;37.628;2023-05-07T01:36:38;15.30;;;3.83;;
76856;SDS011;69705;44.686;37.628;2023-05-07T01:39:08;13.73;;;3.55;;
76856;SDS011;69705;44.686;37.628;2023-05-07T01:41:36;13.93;;;3.60;;
76856;SDS011;69705;44.686;37.628;2023-05-07T01:44:04;8.80;;;3.47;;
76856;SDS011;69705;44.686;37.628;2023-05-07T01:46:32;9.25;;;3.20;;
76856;SDS011;69705;44.686;37.628;2023-05-07T01:48:59;8.65;;;3.13;;
76856;SDS011;69705;44.686;37.628;2023-05-07T01:51:26;9.93;;;3.13;;
76856;SDS011;69705;44.686;37.628;2023-05-07T01:53:53;9.93;;;2.88;;
76856;SDS011;69705;44.686;37.628;2023-05-07T01:56:20;10.43;;;2.97;;
76856;SDS011;69705;44.686;37.628;2023-05-07T01:58:48;7.95;;;2.97;;
76856;SDS011;69705;44.686;37.628;2023-05-07T02:01:17;11.18;;;2.92;;
76856;SDS011;69705;44.686;37.628;2023-05-07T02:03:44;11.85;;;3.00;;
76856;SDS011;69705;44.686;37.628;2023-05-07T02:06:19;9.85;;;3.38;;
76856;SDS011;69705;44.686;37.628;2023-05-07T02:08:46;8.80;;;3.50;;
76856;SDS011;69705;44.686;37.628;2023-05-07T02:11:14;9.90;;;3.03;;
76856;SDS011;69705;44.686;37.628;2023-05-07T02:13:41;7.28;;;2.78;;
76856;SDS011;69705;44.686;37.628;2023-05-07T02:16:08;11.55;;;3.45;;
76856;SDS011;69705;44.686;37.628;2023-05-07T02:18:35;7.85;;;3.20;;
76856;SDS011;69705;44.686;37.628;2023-05-07T02:21:01;10.27;;;3.60;;
76856;SDS011;69705;44.686;37.628;2023-05-07T02:23:28;7.10;;;3.03;;
76856;SDS011;69705;44.686;37.628;2023-05-07T02:25:55;9.98;;;2.92;;
76856;SDS011;69705;44.686;37.628;2023-05-07T02:28:22;9.80;;;3.10;;
76856;SDS011;69705;44.686;37.628;2023-05-07T02:30:53;8.95;;;3.00;;
76856;SDS011;69705;44.686;37.628;2023-05-07T02:33:21;10.00;;;2.83;;
76856;SDS011;69705;44.686;37.628;2023-05-07T02:35:48;8.55;;;3.08;;
76856;SDS011;69705;44.686;37.628;2023-05-07T02:38:15;10.55;;;3.15;;
76856;SDS011;69705;44.686;37.628;2023-05-07T02:40:43;8.30;;;3.00;;
76856;SDS011;69705;44.686;37.628;2023-05-07T02:43:10;9.65;;;3.00;;
76856;SDS011;69705;44.686;37.628;2023-05-07T02:45:38;10.27;;;2.80;;
76856;SDS011;69705;44.686;37.628;2023-05-07T02:48:06;8.10;;;2.95;;
76856;SDS011;69705;44.686;37.628;2023-05-07T02:50:33;7.55;;;2.83;;
76856;SDS011;69705;44.686;37.628;2023-05-07T02:53:00;10.55;;;3.20;;
76856;SDS011;69705;44.686;37.628;2023-05-07T02:55:27;12.13;;;3.10;;
76856;SDS011;69705;44.686;37.628;2023-05-07T02:57:54;10.57;;;2.97;;
76856;SDS011;69705;44.686;37.628;2023-05-07T03:00:21;9.90;;;2.88;;
76856;SDS011;69705;44.686;37.628;2023-05-07T03:02:56;9.45;;;2.85;;
76856;SDS011;69705;44.686;37.628;2023-05-07T03:05:22;7.40;;;2.88;;
76856;SDS011;69705;44.686;37.628;2023-05-07T03:07:49;7.82;;;2.90;;
76856;SDS011;69705;44.686;37.628;2023-05-07T03:10:16;12.10;;;3.00;;
76856;SDS011;69705;44.686;37.628;2023-05-07T03:12:44;9.13;;;3.00;;
76856;SDS011;69705;44.686;37.628;2023-05-07T03:15:15;8.25;;;3.20;;
76856;SDS011;69705;44.686;37.628;2023-05-07T03:17:42;7.03;;;2.70;;
76856;SDS011;69705;44.686;37.628;2023-05-07T03:20:09;7.00;;;2.80;;
76856;SDS011;69705;44.686;37.628;2023-05-07T03:22:37;6.50;;;2.60;;
76856;SDS011;69705;44.686;37.628;2023-05-07T03:25:04;7.22;;;2.65;;
76856;SDS011;69705;44.686;37.628;2023-05-07T03:27:32;7.72;;;2.88;;
76856;SDS011;69705;44.686;37.628;2023-05-07T03:29:59;10.45;;;2.70;;
76856;SDS011;69705;44.686;37.628;2023-05-07T03:32:26;8.10;;;3.00;;
76856;SDS011;69705;44.686;37.628;2023-05-07T03:34:54;7.63;;;2.70;;
76856;SDS011;69705;44.686;37.628;2023-05-07T03:37:21;7.63;;;2.50;;
76856;SDS011;69705;44.686;37.628;2023-05-07T03:39:49;7.45;;;3.00;;
76856;SDS011;69705;44.686;37.628;2023-05-07T03:42:16;8.55;;;3.08;;
76856;SDS011;69705;44.686;37.628;2023-05-07T03:44:43;11.23;;;2.80;;
76856;SDS011;69705;44.686;37.628;2023-05-07T03:47:10;8.70;;;3.13;;
76856;SDS011;69705;44.686;37.628;2023-05-07T03:49:37;9.55;;;3.05;;
76856;SDS011;69705;44.686;37.628;2023-05-07T03:52:05;7.18;;;2.78;;
76856;SDS011;69705;44.686;37.628;2023-05-07T03:54:33;9.25;;;3.10;;
76856;SDS011;69705;44.686;37.628;2023-05-07T03:57:00;8.48;;;3.00;;
76856;SDS011;69705;44.686;37.628;2023-05-07T03:59:28;7.60;;;2.93;;
76856;SDS011;69705;44.686;37.628;2023-05-07T04:01:54;10.45;;;2.60;;
76856;SDS011;69705;44.686;37.628;2023-05-07T04:04:23;6.57;;;2.60;;
76856;SDS011;69705;44.686;37.628;2023-05-07T04:06:50;7.82;;;2.70;;
76856;SDS011;69705;44.686;37.628;2023-05-07T04:09:18;8.25;;;2.50;;
76856;SDS011;69705;44.686;37.628;2023-05-07T04:11:46;7.80;;;2.60;;
76856;SDS011;69705;44.686;37.628;2023-05-07T04:14:13;10.52;;;2.83;;
76856;SDS011;69705;44.686;37.628;2023-05-07T04:16:40;8.88;;;2.75;;
76856;SDS011;69705;44.686;37.628;2023-05-07T04:19:08;7.78;;;2.78;;
76856;SDS011;69705;44.686;37.628;2023-05-07T04:21:37;7.53;;;2.60;;
76856;SDS011;69705;44.686;37.628;2023-05-07T04:24:04;8.00;;;2.80;;
76856;SDS011;69705;44.686;37.628;2023-05-07T04:26:31;7.13;;;3.00;;
76856;SDS011;69705;44.686;37.628;2023-05-07T04:28:58;6.63;;;2.53;;
76856;SDS011;69705;44.686;37.628;2023-05-07T04:31:30;8.88;;;2.60;;
76856;SDS011;69705;44.686;37.628;2023-05-07T04:33:58;9.50;;;2.85;;
76856;SDS011;69705;44.686;37.628;2023-05-07T04:36:27;7.30;;;2.80;;
76856;SDS011;69705;44.686;37.628;2023-05-07T04:39:02;8.80;;;2.70;;
76856;SDS011;69705;44.686;37.628;2023-05-07T04:41:29;9.35;;;2.72;;
76856;SDS011;69705;44.686;37.628;2023-05-07T04:43:57;11.38;;;2.92;;
76856;SDS011;69705;44.686;37.628;2023-05-07T04:46:25;8.27;;;2.72;;
76856;SDS011;69705;44.686;37.628;2023-05-07T04:48:54;10.00;;;3.30;;
76856;SDS011;69705;44.686;37.628;2023-05-07T04:51:21;8.90;;;3.10;;
76856;SDS011;69705;44.686;37.628;2023-05-07T04:53:48;7.57;;;3.35;;
76856;SDS011;69705;44.686;37.628;2023-05-07T04:56:16;8.10;;;3.17;;
76856;SDS011;69705;44.686;37.628;2023-05-07T04:58:45;6.97;;;2.90;;
76856;SDS011;69705;44.686;37.628;2023-05-07T05:01:12;8.93;;;3.17;;
76856;SDS011;69705;44.686;37.628;2023-05-07T05:03:40;7.32;;;3.00;;
76856;SDS011;69705;44.686;37.628;2023-05-07T05:06:08;7.32;;;2.97;;
76856;SDS011;69705;44.686;37.628;2023-05-07T05:08:35;9.98;;;3.70;;
76856;SDS011;69705;44.686;37.628;2023-05-07T05:11:03;8.13;;;3.80;;
76856;SDS011;69705;44.686;37.628;2023-05-07T05:13:32;9.37;;;4.20;;
76856;SDS011;69705;44.686;37.628;2023-05-07T05:16:01;10.20;;;4.50;;
76856;SDS011;69705;44.686;37.628;2023-05-07T05:18:31;10.02;;;4.57;;
76856;SDS011;69705;44.686;37.628;2023-05-07T05:20:58;10.77;;;4.70;;
76856;SDS011;69705;44.686;37.628;2023-05-07T05:23:26;11.85;;;5.28;;
76856;SDS011;69705;44.686;37.628;2023-05-07T05:25:56;10.40;;;5.30;;
76856;SDS011;69705;44.686;37.628;2023-05-07T05:28:25;10.98;;;5.38;;
76856;SDS011;69705;44.686;37.628;2023-05-07T05:30:53;12.50;;;5.68;;
76856;SDS011;69705;44.686;37.628;2023-05-07T05:33:21;10.00;;;5.13;;
76856;SDS011;69705;44.686;37.628;2023-05-07T05:35:49;9.25;;;5.25;;
76856;SDS011;69705;44.686;37.628;2023-05-07T05:38:16;9.83;;;5.23;;
76856;SDS011;69705;44.686;37.628;2023-05-07T05:40:43;11.88;;;5.57;;
76856;SDS011;69705;44.686;37.628;2023-05-07T05:43:10;10.65;;;6.07;;
76856;SDS011;69705;44.686;37.628;2023-05-07T05:45:38;10.98;;;6.18;;
76856;SDS011;69705;44.686;37.628;2023-05-07T05:48:05;10.32;;;5.93;;
76856;SDS011;69705;44.686;37.628;2023-05-07T05:50:33;12.63;;;6.00;;
76856;SDS011;69705;44.686;37.628;2023-05-07T05:53:02;11.95;;;6.05;;
76856;SDS011;69705;44.686;37.628;2023-05-07T05:55:29;12.55;;;6.03;;
76856;SDS011;69705;44.686;37.628;2023-05-07T05:57:59;13.10;;;5.78;;
76856;SDS011;69705;44.686;37.628;2023-05-07T06:00:29;10.27;;;5.10;;
76856;SDS011;69705;44.686;37.628;2023-05-07T06:03:01;10.93;;;5.20;;
76856;SDS011;69705;44.686;37.628;2023-05-07T06:05:28;11.65;;;5.63;;
76856;SDS011;69705;44.686;37.628;2023-05-07T06:07:56;13.23;;;6.13;;
76856;SDS011;69705;44.686;37.628;2023-05-07T06:10:24;11.55;;;6.90;;
76856;SDS011;69705;44.686;37.628;2023-05-07T06:12:51;11.40;;;6.68;;
76856;SDS011;69705;44.686;37.628;2023-05-07T06:15:19;9.80;;;6.20;;
76856;SDS011;69705;44.686;37.628;2023-05-07T06:17:47;10.88;;;6.72;;
76856;SDS011;69705;44.686;37.628;2023-05-07T06:20:16;11.68;;;7.30;;
76856;SDS011;69705;44.686;37.628;2023-05-07T06:22:43;11.57;;;6.35;;
76856;SDS011;69705;44.686;37.628;2023-05-07T06:25:11;11.77;;;5.57;;
76856;SDS011;69705;44.686;37.628;2023-05-07T06:27:38;10.07;;;4.90;;
76856;SDS011;69705;44.686;37.628;2023-05-07T06:30:06;8.40;;;4.78;;
76856;SDS011;69705;44.686;37.628;2023-05-07T06:32:33;10.77;;;4.38;;
76856;SDS011;69705;44.686;37.628;2023-05-07T06:35:00;9.63;;;4.00;;
76856;SDS011;69705;44.686;37.628;2023-05-07T06:37:27;9.43;;;5.65;;
76856;SDS011;69705;44.686;37.628;2023-05-07T06:39:58;10.97;;;5.33;;
76856;SDS011;69705;44.686;37.628;2023-05-07T06:42:25;11.82;;;6.45;;
76856;SDS011;69705;44.686;37.628;2023-05-07T06:44:57;10.60;;;7.03;;
76856;SDS011;69705;44.686;37.628;2023-05-07T06:47:24;10.93;;;6.35;;
76856;SDS011;69705;44.686;37.628;2023-05-07T06:49:54;9.85;;;6.30;;
76856;SDS011;69705;44.686;37.628;2023-05-07T06:52:24;12.83;;;6.87;;
76856;SDS011;69705;44.686;37.628;2023-05-07T06:54:52;11.10;;;6.20;;
76856;SDS011;69705;44.686;37.628;2023-05-07T06:57:21;12.18;;;5.70;;
76856;SDS011;69705;44.686;37.628;2023-05-07T06:59:48;11.48;;;5.90;;
76856;SDS011;69705;44.686;37.628;2023-05-07T07:02:15;11.75;;;6.03;;
76856;SDS011;69705;44.686;37.628;2023-05-07T07:04:42;10.47;;;5.73;;
76856;SDS011;69705;44.686;37.628;2023-05-07T07:07:10;9.93;;;6.45;;
76856;SDS011;69705;44.686;37.628;2023-05-07T07:09:38;12.70;;;6.57;;
76856;SDS011;69705;44.686;37.628;2023-05-07T07:12:07;10.52;;;6.10;;
76856;SDS011;69705;44.686;37.628;2023-05-07T07:14:36;9.68;;;5.13;;
76856;SDS011;69705;44.686;37.628;2023-05-07T07:17:04;13.00;;;5.20;;
76856;SDS011;69705;44.686;37.628;2023-05-07T07:19:31;10.27;;;5.78;;
76856;SDS011;69705;44.686;37.628;2023-05-07T07:21:59;11.65;;;5.80;;
76856;SDS011;69705;44.686;37.628;2023-05-07T07:24:26;10.13;;;4.90;;
76856;SDS011;69705;44.686;37.628;2023-05-07T07:26:57;13.52;;;4.53;;
76856;SDS011;69705;44.686;37.628;2023-05-07T07:29:25;11.00;;;4.10;;
76856;SDS011;69705;44.686;37.628;2023-05-07T07:31:53;8.18;;;3.42;;
76856;SDS011;69705;44.686;37.628;2023-05-07T07:34:21;12.43;;;3.70;;
76856;SDS011;69705;44.686;37.628;2023-05-07T07:36:48;9.88;;;3.42;;
76856;SDS011;69705;44.686;37.628;2023-05-07T07:39:17;8.55;;;3.10;;
76856;SDS011;69705;44.686;37.628;2023-05-07T07:41:46;7.47;;;2.97;;
76856;SDS011;69705;44.686;37.628;2023-05-07T07:44:13;8.63;;;2.85;;
76856;SDS011;69705;44.686;37.628;2023-05-07T07:46:40;8.25;;;2.88;;
76856;SDS011;69705;44.686;37.628;2023-05-07T07:49:07;9.07;;;2.65;;
76856;SDS011;69705;44.686;37.628;2023-05-07T07:51:35;11.00;;;3.00;;
76856;SDS011;69705;44.686;37.628;2023-05-07T07:54:02;7.73;;;2.73;;
76856;SDS011;69705;44.686;37.628;2023-05-07T07:56:32;9.88;;;2.92;;
76856;SDS011;69705;44.686;37.628;2023-05-07T07:59:00;7.55;;;3.05;;
76856;SDS011;69705;44.686;37.628;2023-05-07T08:01:31;9.32;;;3.38;;
76856;SDS011;69705;44.686;37.628;2023-05-07T08:03:59;7.32;;;2.88;;
76856;SDS011;69705;44.686;37.628;2023-05-07T08:06:27;10.60;;;3.07;;
76856;SDS011;69705;44.686;37.628;2023-05-07T08:08:55;9.80;;;3.03;;
76856;SDS011;69705;44.686;37.628;2023-05-07T08:11:22;10.13;;;2.80;;
76856;SDS011;69705;44.686;37.628;2023-05-07T08:13:50;11.30;;;2.97;;
76856;SDS011;69705;44.686;37.628;2023-05-07T08:16:17;8.63;;;2.70;;
76856;SDS011;69705;44.686;37.628;2023-05-07T08:18:44;10.27;;;2.73;;
76856;SDS011;69705;44.686;37.628;2023-05-07T08:21:11;10.10;;;2.70;;
76856;SDS011;69705;44.686;37.628;2023-05-07T08:23:39;11.32;;;2.72;;
76856;SDS011;69705;44.686;37.628;2023-05-07T08:26:07;10.18;;;3.00;;
76856;SDS011;69705;44.686;37.628;2023-05-07T08:28:35;11.40;;;2.85;;
76856;SDS011;69705;44.686;37.628;2023-05-07T08:31:02;11.80;;;2.90;;
76856;SDS011;69705;44.686;37.628;2023-05-07T08:33:34;8.20;;;2.72;;
76856;SDS011;69705;44.686;37.628;2023-05-07T08:36:01;10.85;;;2.80;;
76856;SDS011;69705;44.686;37.628;2023-05-07T08:38:28;7.95;;;3.03;;
76856;SDS011;69705;44.686;37.628;2023-05-07T08:40:55;7.72;;;3.15;;
76856;SDS011;69705;44.686;37.628;2023-05-07T08:43:23;10.40;;;2.80;;
76856;SDS011;69705;44.686;37.628;2023-05-07T08:45:53;10.27;;;3.45;;
76856;SDS011;69705;44.686;37.628;2023-05-07T08:48:27;10.85;;;3.20;;
76856;SDS011;69705;44.686;37.628;2023-05-07T08:51:05;11.20;;;3.20;;
76856;SDS011;69705;44.686;37.628;2023-05-07T08:53:32;10.15;;;3.30;;
76856;SDS011;69705;44.686;37.628;2023-05-07T08:56:00;9.67;;;2.97;;
76856;SDS011;69705;44.686;37.628;2023-05-07T08:58:28;12.07;;;3.10;;
76856;SDS011;69705;44.686;37.628;2023-05-07T09:00:56;7.72;;;2.70;;
76856;SDS011;69705;44.686;37.628;2023-05-07T09:03:24;10.18;;;3.30;;
76856;SDS011;69705;44.686;37.628;2023-05-07T09:05:53;8.15;;;3.10;;
76856;SDS011;69705;44.686;37.628;2023-05-07T09:08:24;10.17;;;2.90;;
76856;SDS011;69705;44.686;37.628;2023-05-07T09:10:53;9.27;;;2.80;;
76856;SDS011;69705;44.686;37.628;2023-05-07T09:13:20;12.60;;;3.15;;
76856;SDS011;69705;44.686;37.628;2023-05-07T09:15:47;9.43;;;3.50;;
76856;SDS011;69705;44.686;37.628;2023-05-07T09:18:14;9.55;;;3.00;;
76856;SDS011;69705;44.686;37.628;2023-05-07T09:20:41;10.43;;;3.23;;
76856;SDS011;69705;44.686;37.628;2023-05-07T09:23:09;8.75;;;2.97;;
76856;SDS011;69705;44.686;37.628;2023-05-07T09:25:37;10.88;;;3.03;;
76856;SDS011;69705;44.686;37.628;2023-05-07T09:28:11;14.13;;;3.50;;
76856;SDS011;69705;44.686;37.628;2023-05-07T09:30:38;8.38;;;3.03;;
76856;SDS011;69705;44.686;37.628;2023-05-07T09:33:08;9.77;;;3.50;;
76856;SDS011;69705;44.686;37.628;2023-05-07T09:35:38;14.35;;;3.67;;
76856;SDS011;69705;44.686;37.628;2023-05-07T09:38:10;10.75;;;3.55;;
76856;SDS011;69705;44.686;37.628;2023-05-07T09:40:38;11.98;;;3.42;;
76856;SDS011;69705;44.686;37.628;2023-05-07T09:43:09;8.23;;;3.28;;
76856;SDS011;69705;44.686;37.628;2023-05-07T09:45:44;9.00;;;2.87;;
76856;SDS011;69705;44.686;37.628;2023-05-07T09:48:12;10.35;;;2.95;;
76856;SDS011;69705;44.686;37.628;2023-05-07T09:50:49;8.50;;;3.10;;
76856;SDS011;69705;44.686;37.628;2023-05-07T09:53:24;9.95;;;2.90;;
76856;SDS011;69705;44.686;37.628;2023-05-07T09:55:53;11.40;;;3.30;;
76856;SDS011;69705;44.686;37.628;2023-05-07T09:58:21;9.27;;;3.00;;
76856;SDS011;69705;44.686;37.628;2023-05-07T10:00:49;8.98;;;3.10;;
76856;SDS011;69705;44.686;37.628;2023-05-07T10:03:17;8.32;;;2.90;;
76856;SDS011;69705;44.686;37.628;2023-05-07T10:05:55;8.50;;;3.22;;
76856;SDS011;69705;44.686;37.628;2023-05-07T10:08:24;8.38;;;3.28;;
76856;SDS011;69705;44.686;37.628;2023-05-07T10:10:55;12.90;;;3.50;;
76856;SDS011;69705;44.686;37.628;2023-05-07T10:13:24;9.68;;;3.28;;
76856;SDS011;69705;44.686;37.628;2023-05-07T10:15:55;10.55;;;3.30;;
76856;SDS011;69705;44.686;37.628;2023-05-07T10:18:24;7.90;;;3.20;;
76856;SDS011;69705;44.686;37.628;2023-05-07T10:21:16;8.88;;;3.40;;
76856;SDS011;69705;44.686;37.628;2023-05-07T10:23:46;9.70;;;3.20;;
76856;SDS011;69705;44.686;37.628;2023-05-07T10:26:23;9.18;;;3.17;;
76856;SDS011;69705;44.686;37.628;2023-05-07T10:28:54;9.38;;;3.30;;
76856;SDS011;69705;44.686;37.628;2023-05-07T10:34:42;11.52;;;3.15;;
76856;SDS011;69705;44.686;37.628;2023-05-07T10:37:12;11.63;;;3.30;;
76856;SDS011;69705;44.686;37.628;2023-05-07T10:39:40;8.30;;;3.28;;
76856;SDS011;69705;44.686;37.628;2023-05-07T10:42:09;10.05;;;3.10;;
76856;SDS011;69705;44.686;37.628;2023-05-07T10:44:39;11.73;;;3.28;;
76856;SDS011;69705;44.686;37.628;2023-05-07T10:47:15;8.60;;;3.25;;
76856;SDS011;69705;44.686;37.628;2023-05-07T10:52:23;10.98;;;3.63;;
76856;SDS011;69705;44.686;37.628;2023-05-07T10:57:56;11.02;;;3.92;;
76856;SDS011;69705;44.686;37.628;2023-05-07T11:05:38;10.98;;;4.70;;
76856;SDS011;69705;44.686;37.628;2023-05-07T11:08:17;11.48;;;5.00;;
76856;SDS011;69705;44.686;37.628;2023-05-07T11:11:10;11.93;;;4.90;;
76856;SDS011;69705;44.686;37.628;2023-05-07T11:13:44;11.48;;;4.60;;
76856;SDS011;69705;44.686;37.628;2023-05-07T11:16:44;12.67;;;4.70;;
76856;SDS011;69705;44.686;37.628;2023-05-07T11:19:47;10.68;;;4.50;;
76856;SDS011;69705;44.686;37.628;2023-05-07T11:25:19;13.63;;;4.03;;
76856;SDS011;69705;44.686;37.628;2023-05-07T11:27:51;11.32;;;3.75;;
76856;SDS011;69705;44.686;37.628;2023-05-07T11:30:19;10.17;;;3.57;;
76856;SDS011;69705;44.686;37.628;2023-05-07T11:32:46;11.93;;;3.90;;
76856;SDS011;69705;44.686;37.628;2023-05-07T11:35:16;16.02;;;3.90;;
76856;SDS011;69705;44.686;37.628;2023-05-07T11:37:45;10.05;;;4.05;;
76856;SDS011;69705;44.686;37.628;2023-05-07T11:40:14;12.32;;;4.20;;
76856;SDS011;69705;44.686;37.628;2023-05-07T11:42:40;11.83;;;4.30;;
76856;SDS011;69705;44.686;37.628;2023-05-07T11:45:09;12.43;;;4.75;;
76856;SDS011;69705;44.686;37.628;2023-05-07T11:47:36;13.02;;;4.28;;
76856;SDS011;69705;44.686;37.628;2023-05-07T11:50:07;14.48;;;4.15;;
76856;SDS011;69705;44.686;37.628;2023-05-07T11:52:34;12.43;;;4.20;;
76856;SDS011;69705;44.686;37.628;2023-05-07T11:55:02;12.47;;;4.20;;
76856;SDS011;69705;44.686;37.628;2023-05-07T11:57:32;12.65;;;4.63;;
76856;SDS011;69705;44.686;37.628;2023-05-07T11:59:59;12.13;;;4.07;;
76856;SDS011;69705;44.686;37.628;2023-05-07T12:02:40;12.82;;;4.18;;
76856;SDS011;69705;44.686;37.628;2023-05-07T12:05:08;11.13;;;4.00;;
76856;SDS011;69705;44.686;37.628;2023-05-07T12:07:34;10.70;;;3.97;;
76856;SDS011;69705;44.686;37.628;2023-05-07T12:10:05;11.07;;;4.07;;
76856;SDS011;69705;44.686;37.628;2023-05-07T12:12:39;11.65;;;3.83;;
76856;SDS011;69705;44.686;37.628;2023-05-07T12:15:15;9.77;;;4.00;;
76856;SDS011;69705;44.686;37.628;2023-05-07T12:17:43;12.57;;;4.55;;
76856;SDS011;69705;44.686;37.628;2023-05-07T12:20:10;12.13;;;4.80;;
76856;SDS011;69705;44.686;37.628;2023-05-07T12:22:37;16.45;;;4.40;;
76856;SDS011;69705;44.686;37.628;2023-05-07T12:25:04;12.73;;;5.03;;
76856;SDS011;69705;44.686;37.628;2023-05-07T12:27:32;14.10;;;4.63;;
76856;SDS011;69705;44.686;37.628;2023-05-07T12:30:04;10.63;;;4.55;;
76856;SDS011;69705;44.686;37.628;2023-05-07T12:32:31;15.37;;;4.43;;
76856;SDS011;69705;44.686;37.628;2023-05-07T12:35:02;12.10;;;4.30;;
76856;SDS011;69705;44.686;37.628;2023-05-07T12:37:32;12.32;;;4.57;;
76856;SDS011;69705;44.686;37.628;2023-05-07T12:40:06;12.65;;;4.25;;
76856;SDS011;69705;44.686;37.628;2023-05-07T12:42:37;12.35;;;4.40;;
76856;SDS011;69705;44.686;37.628;2023-05-07T12:45:09;13.57;;;4.43;;
76856;SDS011;69705;44.686;37.628;2023-05-07T12:47:37;13.60;;;4.50;;
76856;SDS011;69705;44.686;37.628;2023-05-07T12:50:07;10.70;;;4.80;;
76856;SDS011;69705;44.686;37.628;2023-05-07T12:52:34;12.88;;;4.50;;
76856;SDS011;69705;44.686;37.628;2023-05-07T12:55:05;15.82;;;4.15;;
76856;SDS011;69705;44.686;37.628;2023-05-07T12:57:38;11.97;;;3.97;;
76856;SDS011;69705;44.686;37.628;2023-05-07T13:00:08;15.80;;;5.30;;
76856;SDS011;69705;44.686;37.628;2023-05-07T13:02:39;19.25;;;8.07;;
76856;SDS011;69705;44.686;37.628;2023-05-07T13:05:07;17.58;;;6.28;;
76856;SDS011;69705;44.686;37.628;2023-05-07T13:07:34;12.80;;;4.90;;
76856;SDS011;69705;44.686;37.628;2023-05-07T13:10:03;10.93;;;4.97;;
76856;SDS011;69705;44.686;37.628;2023-05-07T13:12:30;13.88;;;5.10;;
76856;SDS011;69705;44.686;37.628;2023-05-07T13:14:57;11.93;;;5.00;;
76856;SDS011;69705;44.686;37.628;2023-05-07T13:17:25;14.55;;;5.50;;
76856;SDS011;69705;44.686;37.628;2023-05-07T13:19:52;13.65;;;5.18;;
76856;SDS011;69705;44.686;37.628;2023-05-07T13:22:18;11.07;;;5.90;;
76856;SDS011;69705;44.686;37.628;2023-05-07T13:24:45;11.82;;;5.88;;
76856;SDS011;69705;44.686;37.628;2023-05-07T13:27:12;13.23;;;6.60;;
76856;SDS011;69705;44.686;37.628;2023-05-07T13:29:39;15.07;;;6.13;;
76856;SDS011;69705;44.686;37.628;2023-05-07T13:32:06;14.32;;;5.80;;
76856;SDS011;69705;44.686;37.628;2023-05-07T13:34:32;13.83;;;5.30;;
76856;SDS011;69705;44.686;37.628;2023-05-07T13:36:59;14.20;;;4.97;;
76856;SDS011;69705;44.686;37.628;2023-05-07T13:39:27;13.45;;;4.97;;
76856;SDS011;69705;44.686;37.628;2023-05-07T13:41:53;15.70;;;5.05;;
76856;SDS011;69705;44.686;37.628;2023-05-07T13:44:20;10.77;;;4.65;;
76856;SDS011;69705;44.686;37.628;2023-05-07T13:46:47;11.50;;;4.83;;
76856;SDS011;69705;44.686;37.628;2023-05-07T13:49:14;16.02;;;6.57;;
76856;SDS011;69705;44.686;37.628;2023-05-07T13:51:41;23.60;;;13.40;;
76856;SDS011;69705;44.686;37.628;2023-05-07T13:54:08;13.02;;;6.13;;
76856;SDS011;69705;44.686;37.628;2023-05-07T13:56:35;15.18;;;5.95;;
76856;SDS011;69705;44.686;37.628;2023-05-07T13:59:01;10.97;;;5.50;;
76856;SDS011;69705;44.686;37.628;2023-05-07T14:01:28;13.05;;;5.93;;
76856;SDS011;69705;44.686;37.628;2023-05-07T14:03:55;13.35;;;5.80;;
76856;SDS011;69705;44.686;37.628;2023-05-07T14:06:24;14.05;;;5.70;;
76856;SDS011;69705;44.686;37.628;2023-05-07T14:08:51;17.02;;;6.03;;
76856;SDS011;69705;44.686;37.628;2023-05-07T14:11:18;14.97;;;6.07;;
76856;SDS011;69705;44.686;37.628;2023-05-07T14:13:44;15.82;;;6.53;;
76856;SDS011;69705;44.686;37.628;2023-05-07T14:16:11;11.10;;;5.25;;
76856;SDS011;69705;44.686;37.628;2023-05-07T14:18:38;13.95;;;6.10;;
76856;SDS011;69705;44.686;37.628;2023-05-07T14:21:05;15.52;;;7.60;;
76856;SDS011;69705;44.686;37.628;2023-05-07T14:23:35;14.83;;;6.43;;
76856;SDS011;69705;44.686;37.628;2023-05-07T14:26:02;15.75;;;5.65;;
76856;SDS011;69705;44.686;37.628;2023-05-07T14:28:30;13.02;;;6.05;;
76856;SDS011;69705;44.686;37.628;2023-05-07T14:30:57;15.13;;;5.53;;
76856;SDS011;69705;44.686;37.628;2023-05-07T14:33:24;13.77;;;5.78;;
76856;SDS011;69705;44.686;37.628;2023-05-07T14:35:51;15.47;;;6.10;;
76856;SDS011;69705;44.686;37.628;2023-05-07T14:38:19;10.93;;;5.30;;
76856;SDS011;69705;44.686;37.628;2023-05-07T14:40:46;13.00;;;4.60;;
76856;SDS011;69705;44.686;37.628;2023-05-07T14:43:13;10.30;;;4.40;;
76856;SDS011;69705;44.686;37.628;2023-05-07T14:45:40;16.30;;;4.75;;
76856;SDS011;69705;44.686;37.628;2023-05-07T14:48:07;10.73;;;4.03;;
76856;SDS011;69705;44.686;37.628;2023-05-07T14:50:35;10.38;;;4.00;;